Time;durP1;ratioP1;P1;durP2;ratioP2;P2;SDS_P1;SDS_P2;PMS_P1;PMS_P2;Temp;Humidity;BMP_temperature;BMP_pressure;BME280_temperature;BME280_humidity;BME280_pressure;Samples;Min_cycle;Max_cycle;Signal;HPM_P1;HPM_P2
2023/06/12 00:00:48;;;;;;;;;;;;;;;16.55;65.01;99118.38;4304250;33;33264;-93
2023/06/12 00:03:17;;;;;;;;;;;;;;;16.60;64.77;99116.41;4291536;33;34690;-92
2023/06/12 00:05:46;;;;;;;;;;;;;;;16.61;64.79;99118.16;4279215;33;33896;-93
2023/06/12 00:08:13;;;;;;;;;;;;;;;16.67;64.04;99124.00;4304274;33;34428;-92
2023/06/12 00:10:42;;;;;;;;;;;;;;;16.80;64.21;99116.50;4304247;33;33309;-92
2023/06/12 00:13:10;;;;;;;;;;;;;;;16.41;63.71;99117.16;4303974;33;33698;-91
2023/06/12 00:15:38;;;;;;;;;;;;;;;16.28;64.67;99118.50;4304096;33;35160;-92
2023/06/12 00:18:06;;;;;;;;;;;;;;;16.47;63.52;99106.38;4291035;33;34437;-92
2023/06/12 00:20:34;;;;;;;;;;;;;;;16.46;64.26;99102.03;4291095;33;33477;-92
2023/06/12 00:23:02;;;;;;;;;;;;;;;16.55;64.17;99106.06;4303980;33;34080;-92
2023/06/12 00:25:30;;;;;;;;;;;;;;;16.64;63.01;99102.22;4290786;33;33869;-92
2023/06/12 00:27:58;;;;;;;;;;;;;;;16.67;63.39;99099.50;4303830;33;35379;-93
2023/06/12 00:30:25;;;;;;;;;;;;;;;16.57;63.07;99104.28;4290973;33;33303;-93
2023/06/12 00:32:53;;;;;;;;;;;;;;;16.61;63.08;99103.22;4304205;33;33915;-93
2023/06/12 00:35:21;;;;;;;;;;;;;;;16.63;62.85;99103.16;4305772;33;34877;-93
2023/06/12 00:37:50;;;;;;;;;;;;;;;16.36;64.40;99105.94;4305843;33;35096;-92
2023/06/12 00:40:18;;;;;;;;;;;;;;;16.36;64.11;99113.84;4305963;33;34000;-93
2023/06/12 00:42:47;;;;;;;;;;;;;;;16.58;62.76;99111.22;4305831;33;34059;-92
2023/06/12 00:45:16;;;;;;;;;;;;;;;16.47;63.73;99106.38;4292937;33;35241;-91
2023/06/12 00:47:48;;;;;;;;;;;;;;;16.35;63.79;99103.38;4305840;33;34534;-91
2023/06/12 00:50:16;;;;;;;;;;;;;;;16.19;63.79;99105.72;4305872;33;32966;-92
2023/06/12 00:52:48;;;;;;;;;;;;;;;16.17;63.73;99102.31;4292631;33;34017;-92
2023/06/12 00:55:16;;;;;;;;;;;;;;;16.40;63.32;99098.81;4292783;33;35250;-92
2023/06/12 00:57:45;;;;;;;;;;;;;;;16.19;63.73;99100.47;4305595;33;34312;-92
2023/06/12 01:00:14;;;;;;;;;;;;;;;16.17;63.43;99103.16;4292503;33;31959;-94
2023/06/12 01:02:43;;;;;;;;;;;;;;;16.10;64.28;99092.00;4304670;33;34250;-93
2023/06/12 01:05:12;;;;;;;;;;;;;;;16.56;63.07;99096.44;4304352;33;36016;-93
2023/06/12 01:07:40;;;;;;;;;;;;;;;16.41;62.54;99100.50;4280849;33;34692;-93
2023/06/12 01:10:10;;;;;;;;;;;;;;;16.48;62.23;99108.09;4305703;33;33136;-93
2023/06/12 01:12:39;;;;;;;;;;;;;;;16.48;63.05;99092.34;4292892;33;34943;-93
2023/06/12 01:15:07;;;;;;;;;;;;;;;16.14;63.30;99092.75;4292536;33;34229;-94
2023/06/12 01:17:35;;;;;;;;;;;;;;;16.47;62.42;99090.62;4292461;33;34685;-92
2023/06/12 01:20:05;;;;;;;;;;;;;;;16.35;63.36;99085.84;4305414;33;33254;-92
2023/06/12 01:22:34;;;;;;;;;;;;;;;16.03;63.34;99087.91;4281022;33;33335;-91
2023/06/12 01:25:17;;;;;;;;;;;;;;;16.27;63.23;99091.41;4292876;33;34933;-92
2023/06/12 01:28:04;;;;;;;;;;;;;;;15.80;65.28;99086.13;4305799;33;33265;-91
2023/06/12 01:30:46;;;;;;;;;;;;;;;15.82;65.11;99089.53;4305754;33;33343;-92
2023/06/12 01:33:17;;;;;;;;;;;;;;;16.00;64.17;99088.00;4281280;33;34126;-92
2023/06/12 01:35:46;;;;;;;;;;;;;;;16.14;64.61;99089.28;4292947;33;35104;-92
2023/06/12 01:38:16;;;;;;;;;;;;;;;16.03;64.50;99087.06;4305421;33;34804;-94
2023/06/12 01:40:45;;;;;;;;;;;;;;;15.87;65.65;99094.66;4305957;33;32912;-92
2023/06/12 01:43:13;;;;;;;;;;;;;;;16.06;64.03;99100.09;4304630;33;34220;-93
2023/06/12 01:45:41;;;;;;;;;;;;;;;15.83;66.02;99083.41;4292189;33;36132;-93
2023/06/12 01:48:10;;;;;;;;;;;;;;;15.72;66.56;99091.63;4292734;33;34656;-93
2023/06/12 01:50:37;;;;;;;;;;;;;;;15.68;66.31;99091.78;4305645;33;33668;-93
2023/06/12 01:53:07;;;;;;;;;;;;;;;15.46;68.83;99102.16;4305302;33;34033;-94
2023/06/12 01:55:36;;;;;;;;;;;;;;;15.05;72.35;99102.66;4292665;33;35154;-92
2023/06/12 01:58:04;;;;;;;;;;;;;;;15.18;72.15;99108.38;4292760;33;34701;-93
2023/06/12 02:00:35;;;;;;;;;;;;;;;15.29;68.63;99108.84;4292869;33;33995;-93
2023/06/12 02:03:04;;;;;;;;;;;;;;;15.32;67.76;99105.28;4305525;33;34827;-93
2023/06/12 02:05:32;;;;;;;;;;;;;;;15.58;65.82;99099.09;4305247;33;34677;-93
2023/06/12 02:07:59;;;;;;;;;;;;;;;15.57;65.89;99092.16;4292261;33;35068;-93
2023/06/12 02:10:28;;;;;;;;;;;;;;;15.47;67.46;99096.88;4305251;33;33767;-93
2023/06/12 02:12:55;;;;;;;;;;;;;;;15.23;67.44;99101.22;4292224;33;34001;-93
2023/06/12 02:15:24;;;;;;;;;;;;;;;15.14;69.38;99104.09;4292154;33;34743;-92
2023/06/12 02:17:53;;;;;;;;;;;;;;;15.10;69.37;99102.50;4292348;33;34384;-92
2023/06/12 02:20:20;;;;;;;;;;;;;;;15.14;69.88;99097.12;4292172;33;34022;-92
2023/06/12 02:22:48;;;;;;;;;;;;;;;15.24;67.47;99094.19;4292182;33;34005;-92
2023/06/12 02:25:17;;;;;;;;;;;;;;;15.09;68.60;99093.78;4292418;33;35270;-92
2023/06/12 02:27:45;;;;;;;;;;;;;;;15.04;68.23;99093.09;4304026;33;34727;-93
2023/06/12 02:30:13;;;;;;;;;;;;;;;15.19;67.32;99093.47;4305180;33;34035;-92
2023/06/12 02:32:41;;;;;;;;;;;;;;;14.82;72.30;99092.91;4304245;33;34997;-93
2023/06/12 02:35:09;;;;;;;;;;;;;;;15.03;70.06;99095.75;4292144;33;36000;-92
2023/06/12 02:37:38;;;;;;;;;;;;;;;15.50;67.62;99095.91;4305044;33;34407;-93
2023/06/12 02:40:07;;;;;;;;;;;;;;;15.33;68.10;99099.09;4305305;33;33451;-93
2023/06/12 02:42:35;;;;;;;;;;;;;;;15.35;68.36;99092.91;4292308;33;34092;-93
2023/06/12 02:45:03;;;;;;;;;;;;;;;15.39;67.39;99100.66;4280109;33;34256;-92
2023/06/12 02:47:31;;;;;;;;;;;;;;;15.33;67.40;99096.50;4304938;33;35060;-92
2023/06/12 02:50:01;;;;;;;;;;;;;;;15.05;69.01;99102.66;4305309;33;33103;-92
2023/06/12 02:52:30;;;;;;;;;;;;;;;15.24;68.27;99097.66;4305067;33;34030;-93
2023/06/12 02:54:58;;;;;;;;;;;;;;;15.09;68.82;99106.91;4305151;33;35955;-93
2023/06/12 02:57:26;;;;;;;;;;;;;;;14.94;69.14;99107.41;4304459;33;35314;-93
2023/06/12 02:59:53;;;;;;;;;;;;;;;15.50;66.64;99106.41;4292001;33;32963;-92
2023/06/12 03:02:22;;;;;;;;;;;;;;;15.58;64.94;99099.09;4292275;33;34040;-92
2023/06/12 03:04:50;;;;;;;;;;;;;;;15.46;65.83;99105.66;4279864;33;33823;-92
2023/06/12 03:07:18;;;;;;;;;;;;;;;15.60;64.89;99097.31;4305232;33;34291;-94
2023/06/12 03:09:46;;;;;;;;;;;;;;;15.76;65.05;99102.03;4304920;33;33401;-92
2023/06/12 03:12:14;;;;;;;;;;;;;;;15.49;67.79;99105.53;4304887;33;34132;-94
2023/06/12 03:14:43;;;;;;;;;;;;;;;15.48;65.47;99103.00;4304761;33;35137;-93
2023/06/12 03:17:10;;;;;;;;;;;;;;;15.64;66.57;99098.91;4279873;33;32607;-93
2023/06/12 03:19:39;;;;;;;;;;;;;;;15.09;70.20;99106.91;4303865;33;32970;-93
2023/06/12 03:22:06;;;;;;;;;;;;;;;15.28;69.40;99107.16;4304642;33;34840;-92
2023/06/12 03:24:37;;;;;;;;;;;;;;;15.38;68.83;99104.22;4304737;33;36202;-94
2023/06/12 03:27:07;;;;;;;;;;;;;;;15.72;66.24;99106.50;4292171;33;34309;-92
2023/06/12 03:29:35;;;;;;;;;;;;;;;15.58;66.66;99106.12;4291961;33;34028;-93
2023/06/12 03:32:03;;;;;;;;;;;;;;;16.20;63.92;99103.03;4291447;33;33316;-92
2023/06/12 03:34:33;;;;;;;;;;;;;;;16.36;63.27;99108.56;4303851;33;35452;-93
2023/06/12 03:37:01;;;;;;;;;;;;;;;16.08;63.54;99114.84;4280242;33;34439;-91
2023/06/12 03:39:29;;;;;;;;;;;;;;;16.27;61.87;99101.03;4304583;33;33779;-94
2023/06/12 03:41:58;;;;;;;;;;;;;;;16.15;63.80;99104.09;4304615;33;34872;-93
2023/06/12 03:44:26;;;;;;;;;;;;;;;16.21;63.04;99110.00;4304745;33;35928;-93
2023/06/12 03:46:53;;;;;;;;;;;;;;;16.20;61.95;99102.16;4304723;33;34318;-94
2023/06/12 03:49:23;;;;;;;;;;;;;;;16.16;63.02;99100.59;4291476;33;31718;-92
2023/06/12 03:51:50;;;;;;;;;;;;;;;16.31;63.97;99113.16;4304554;33;34550;-93
2023/06/12 03:54:19;;;;;;;;;;;;;;;16.24;63.73;99109.87;4304451;33;34752;-94
2023/06/12 03:56:48;;;;;;;;;;;;;;;16.35;62.46;99101.59;4304354;33;34694;-94
2023/06/12 03:59:18;;;;;;;;;;;;;;;16.35;63.54;99106.00;4303229;33;33419;-92
2023/06/12 04:01:48;;;;;;;;;;;;;;;16.77;61.05;99100.84;4291657;33;34157;-93
2023/06/12 04:04:16;;;;;;;;;;;;;;;16.91;61.82;99099.47;4304484;33;35020;-92
2023/06/12 04:06:45;;;;;;;;;;;;;;;17.22;59.27;99097.28;4279711;33;35293;-93
2023/06/12 04:09:14;;;;;;;;;;;;;;;16.91;60.97;99100.31;4292940;33;34023;-92
2023/06/12 04:11:43;;;;;;;;;;;;;;;17.18;59.60;99098.31;4305972;33;33993;-91
2023/06/12 04:14:10;;;;;;;;;;;;;;;17.34;58.34;99102.94;4292715;33;34045;-93
2023/06/12 04:16:38;;;;;;;;;;;;;;;17.58;56.29;99096.63;4293136;33;34771;-94
2023/06/12 04:19:07;;;;;;;;;;;;;;;17.93;55.82;99098.66;4281140;33;32837;-93
2023/06/12 04:21:35;;;;;;;;;;;;;;;17.57;57.82;99100.16;4306019;33;34070;-92
2023/06/12 04:24:04;;;;;;;;;;;;;;;17.95;56.04;99105.56;4305996;33;35151;-93
2023/06/12 04:26:34;;;;;;;;;;;;;;;17.71;59.06;99102.22;4305315;33;34251;-93
2023/06/12 04:29:02;;;;;;;;;;;;;;;17.84;57.36;99101.66;4306339;33;33587;-92
2023/06/12 04:31:31;;;;;;;;;;;;;;;17.90;56.70;99106.72;4293401;33;34633;-92
2023/06/12 04:34:00;;;;;;;;;;;;;;;17.83;57.33;99103.47;4305929;33;35935;-93
2023/06/12 04:36:28;;;;;;;;;;;;;;;17.91;55.29;99104.00;4298645;33;34248;-94
2023/06/12 04:38:56;;;;;;;;;;;;;;;18.74;52.14;99115.13;4292375;33;33038;-92
2023/06/12 04:41:27;;;;;;;;;;;;;;;18.09;56.12;99112.00;4292463;33;33839;-93
2023/06/12 04:43:58;;;;;;;;;;;;;;;18.21;55.54;99110.59;4291860;33;35057;-93
2023/06/12 04:46:28;;;;;;;;;;;;;;;18.16;55.23;99116.09;4279956;33;34298;-92
2023/06/12 04:48:55;;;;;;;;;;;;;;;18.12;55.03;99117.13;4290548;33;33691;-93
2023/06/12 04:51:23;;;;;;;;;;;;;;;18.27;57.62;99126.97;4279011;33;33768;-96
2023/06/12 04:53:53;;;;;;;;;;;;;;;18.92;54.70;99118.72;4291596;33;35220;-92
2023/06/12 04:56:21;;;;;;;;;;;;;;;18.59;55.54;99122.00;4291640;33;34426;-93
2023/06/12 04:58:50;;;;;;;;;;;;;;;18.76;53.39;99123.84;4290371;33;33524;-92
2023/06/12 05:01:19;;;;;;;;;;;;;;;18.68;53.82;99124.19;4278483;33;34016;-92
2023/06/12 05:03:49;;;;;;;;;;;;;;;19.37;53.67;99130.53;4290367;33;35283;-92
2023/06/12 05:06:17;;;;;;;;;;;;;;;19.33;54.00;99123.72;4277926;33;32983;-92
2023/06/12 05:08:45;;;;;;;;;;;;;;;19.26;50.76;99122.31;4291555;33;33452;-92
2023/06/12 05:11:13;;;;;;;;;;;;;;;19.12;52.91;99131.75;4291117;33;34952;-92
2023/06/12 05:13:41;;;;;;;;;;;;;;;19.60;52.13;99120.59;4278496;33;36055;-91
2023/06/12 05:16:10;;;;;;;;;;;;;;;19.61;51.67;99132.87;4278286;33;35376;-92
2023/06/12 05:18:38;;;;;;;;;;;;;;;19.40;52.64;99126.91;4290932;33;33298;-93
2023/06/12 05:21:06;;;;;;;;;;;;;;;19.73;48.81;99121.69;4291290;33;34826;-91
2023/06/12 05:23:35;;;;;;;;;;;;;;;19.35;50.62;99121.84;4291334;33;36002;-91
2023/06/12 05:26:04;;;;;;;;;;;;;;;19.26;50.64;99122.31;4291226;33;35453;-94
2023/06/12 05:28:32;;;;;;;;;;;;;;;19.78;51.15;99113.53;4291221;33;33748;-92
2023/06/12 05:31:01;;;;;;;;;;;;;;;19.19;47.56;99120.91;4278219;33;33838;-93
2023/06/12 05:33:29;;;;;;;;;;;;;;;20.25;47.71;99118.94;4278155;33;35651;-93
2023/06/12 05:35:56;;;;;;;;;;;;;;;20.58;48.63;99125.97;4278041;33;34732;-93
2023/06/12 05:38:25;;;;;;;;;;;;;;;20.21;49.98;99124.50;4278073;33;33544;-92
2023/06/12 05:40:52;;;;;;;;;;;;;;;20.31;47.05;99112.47;4278123;33;33773;-92
2023/06/12 05:43:20;;;;;;;;;;;;;;;20.25;49.01;99113.66;4278046;33;35115;-93
2023/06/12 05:45:49;;;;;;;;;;;;;;;20.84;49.99;99113.09;4278396;33;34657;-93
2023/06/12 05:48:18;;;;;;;;;;;;;;;20.44;49.95;99125.88;4266333;33;34028;-92
2023/06/12 05:50:46;;;;;;;;;;;;;;;20.70;48.22;99118.31;4278139;33;33733;-93
2023/06/12 05:53:14;;;;;;;;;;;;;;;21.48;46.09;99121.81;4278037;33;36160;-92
2023/06/12 05:55:42;;;;;;;;;;;;;;;21.75;44.43;99129.03;4278178;33;34433;-92
2023/06/12 05:58:10;;;;;;;;;;;;;;;22.64;41.77;99133.28;4277981;33;33242;-93
2023/06/12 06:00:38;;;;;;;;;;;;;;;21.24;44.61;99129.34;4289764;33;34026;-96
2023/06/12 06:03:19;;;;;;;;;;;;;;;21.58;43.83;99127.38;4278160;33;34667;-92
2023/06/12 06:05:47;;;;;;;;;;;;;;;20.28;47.59;99128.50;4296567;33;33920;-92
2023/06/12 06:08:17;;;;;;;;;;;;;;;21.04;45.59;99127.00;4278718;33;33271;-91
2023/06/12 06:10:45;;;;;;;;;;;;;;;21.36;45.19;99128.62;4277466;33;32947;-92
2023/06/12 06:13:13;;;;;;;;;;;;;;;22.23;43.36;99134.06;4277149;33;36098;-91
2023/06/12 06:15:41;;;;;;;;;;;;;;;23.07;40.66;99139.37;4277369;33;34556;-91
2023/06/12 06:18:09;;;;;;;;;;;;;;;22.40;42.34;99133.91;4291175;33;32690;-92
2023/06/12 06:20:38;;;;;;;;;;;;;;;21.99;44.67;99131.13;4292001;33;34141;-90
2023/06/12 06:23:06;;;;;;;;;;;;;;;21.55;42.44;99128.44;4290715;33;35340;-95
2023/06/12 06:25:35;;;;;;;;;;;;;;;20.99;44.01;99138.69;4292450;33;34435;-93
2023/06/12 06:28:06;;;;;;;;;;;;;;;21.11;43.77;99133.66;4294564;33;33086;-92
2023/06/12 06:30:33;;;;;;;;;;;;;;;21.56;44.28;99131.94;4293523;33;33488;-91
2023/06/12 06:33:06;;;;;;;;;;;;;;;21.11;44.22;99133.66;4293184;33;35463;-95
2023/06/12 06:35:41;;;;;;;;;;;;;;;22.06;41.90;99130.69;4292823;33;35600;-91
2023/06/12 06:38:09;;;;;;;;;;;;;;;20.78;44.59;99134.63;4293337;33;34140;-90
2023/06/12 06:40:37;;;;;;;;;;;;;;;20.49;47.80;99136.19;4292054;33;34564;-96
2023/06/12 06:43:05;;;;;;;;;;;;;;;20.54;46.35;99135.03;4292800;33;35082;-93
2023/06/12 06:45:40;;;;;;;;;;;;;;;20.69;46.00;99136.00;4292626;33;33963;-91
2023/06/12 06:48:08;;;;;;;;;;;;;;;20.68;44.66;99136.06;4294343;33;34064;-96
2023/06/12 06:50:36;;;;;;;;;;;;;;;22.11;40.71;99136.56;4293901;33;34923;-95
2023/06/12 06:53:06;;;;;;;;;;;;;;;21.20;43.27;99133.97;4292237;33;35059;-92
2023/06/12 06:55:34;;;;;;;;;;;;;;;21.68;45.34;99139.16;4292843;33;34690;-92
2023/06/12 06:58:02;;;;;;;;;;;;;;;23.08;38.83;99142.88;4290380;33;33683;-94
2023/06/12 07:00:31;;;;;;;;;;;;;;;23.90;36.68;99146.28;4277580;33;34175;-92
2023/06/12 07:02:59;;;;;;;;;;;;;;;23.39;37.61;99141.69;4277609;33;34852;-91
2023/06/12 07:05:27;;;;;;;;;;;;;;;23.74;36.66;99145.59;4290665;33;34387;-94
2023/06/12 07:07:56;;;;;;;;;;;;;;;23.59;37.65;99140.34;4290726;33;33746;-92
2023/06/12 07:10:29;;;;;;;;;;;;;;;22.78;38.29;99143.88;4290573;33;34732;-92
2023/06/12 07:12:57;;;;;;;;;;;;;;;21.86;40.31;99139.84;4289517;33;36071;-93
2023/06/12 07:15:26;;;;;;;;;;;;;;;23.12;39.24;99147.06;4290976;33;34288;-95
2023/06/12 07:17:54;;;;;;;;;;;;;;;24.42;35.07;99153.25;4290683;33;33396;-93
2023/06/12 07:20:22;;;;;;;;;;;;;;;23.98;35.92;99148.37;4265948;33;33969;-93
2023/06/12 07:22:50;;;;;;;;;;;;;;;24.12;35.97;99145.59;4277954;33;35432;-93
2023/06/12 07:25:19;;;;;;;;;;;;;;;23.60;36.94;99146.53;4277680;33;33474;-93
2023/06/12 07:27:48;;;;;;;;;;;;;;;23.58;35.70;99143.12;4277637;33;33782;-94
2023/06/12 07:30:16;;;;;;;;;;;;;;;24.39;34.21;99140.16;4277315;33;34544;-93
2023/06/12 07:32:44;;;;;;;;;;;;;;;23.93;36.56;99146.06;4290389;33;35225;-94
2023/06/12 07:35:12;;;;;;;;;;;;;;;23.93;35.49;99135.44;4277437;33;34784;-93
2023/06/12 07:37:42;;;;;;;;;;;;;;;24.70;34.76;99140.66;4277704;33;33690;-92
2023/06/12 07:40:11;;;;;;;;;;;;;;;24.50;35.43;99141.22;4290429;33;34217;-92
2023/06/12 07:42:42;;;;;;;;;;;;;;;22.94;37.97;99153.50;4277219;33;34900;-93
2023/06/12 07:45:11;;;;;;;;;;;;;;;22.65;38.78;99140.31;4278002;33;34340;-93
2023/06/12 07:47:40;;;;;;;;;;;;;;;23.59;36.30;99143.00;4290194;33;33423;-92
2023/06/12 07:50:08;;;;;;;;;;;;;;;24.24;35.80;99143.91;4290374;33;34234;-93
2023/06/12 07:52:37;;;;;;;;;;;;;;;24.86;37.00;99151.03;4290129;33;34895;-92
2023/06/12 07:55:05;;;;;;;;;;;;;;;25.08;37.30;99139.66;4277065;33;34741;-93
2023/06/12 07:57:34;;;;;;;;;;;;;;;23.93;37.96;99147.84;4247836;33;975398;-93
2023/06/12 08:00:05;;;;;;;;;;;;;;;23.34;37.22;99149.13;4290079;33;34182;-93
2023/06/12 08:02:35;;;;;;;;;;;;;;;25.16;31.68;99139.09;4289803;33;35037;-91
2023/06/12 08:05:04;;;;;;;;;;;;;;;24.57;33.38;99142.50;4289928;33;34648;-92
2023/06/12 08:07:33;;;;;;;;;;;;;;;25.06;32.02;99130.94;4288998;33;33052;-93
2023/06/12 08:10:01;;;;;;;;;;;;;;;25.54;30.54;99136.22;4277249;33;34957;-92
2023/06/12 08:12:29;;;;;;;;;;;;;;;24.48;35.57;99136.00;4277181;33;35090;-93
2023/06/12 08:14:57;;;;;;;;;;;;;;;23.69;34.88;99131.75;4276703;33;35401;-93
2023/06/12 08:17:26;;;;;;;;;;;;;;;24.67;33.90;99130.25;4276740;33;33392;-92
2023/06/12 08:19:54;;;;;;;;;;;;;;;24.14;33.39;99125.09;4276862;33;34241;-94
2023/06/12 08:22:23;;;;;;;;;;;;;;;24.28;32.46;99129.41;4276595;33;34988;-93
2023/06/12 08:24:51;;;;;;;;;;;;;;;23.09;34.45;99129.50;4277011;33;34587;-93
2023/06/12 08:27:19;;;;;;;;;;;;;;;23.45;35.74;99125.34;4277075;33;33375;-93
2023/06/12 08:29:47;;;;;;;;;;;;;;;24.95;35.53;99129.06;4276697;33;34039;-93
2023/06/12 08:32:15;;;;;;;;;;;;;;;25.30;32.42;99128.25;4276804;33;34876;-92
2023/06/12 08:34:43;;;;;;;;;;;;;;;25.36;34.74;99129.66;4276626;33;35372;-92
2023/06/12 08:37:11;;;;;;;;;;;;;;;24.98;36.19;99128.81;4276518;33;33017;-93
2023/06/12 08:39:39;;;;;;;;;;;;;;;25.99;33.61;99127.50;4289818;33;34170;-93
2023/06/12 08:42:07;;;;;;;;;;;;;;;26.00;29.51;99126.53;4289247;33;35275;-93
2023/06/12 08:44:35;;;;;;;;;;;;;;;25.21;31.62;99136.09;4276318;33;35102;-92
2023/06/12 08:47:03;;;;;;;;;;;;;;;24.54;32.50;99130.25;4289276;33;34135;-93
2023/06/12 08:49:32;;;;;;;;;;;;;;;23.74;34.28;99124.31;4276939;33;34420;-92
2023/06/12 08:52:01;;;;;;;;;;;;;;;23.11;34.15;99128.56;4290359;33;36096;-93
2023/06/12 08:54:29;;;;;;;;;;;;;;;23.91;36.34;99126.69;4290663;33;34772;-94
2023/06/12 08:56:57;;;;;;;;;;;;;;;24.49;33.63;99128.84;4280114;33;33390;-92
2023/06/12 08:59:25;;;;;;;;;;;;;;;24.08;32.61;99124.66;4292457;33;34203;-91
2023/06/12 09:01:54;;;;;;;;;;;;;;;24.29;35.37;99130.28;4278575;33;34642;-94
2023/06/12 09:04:45;;;;;;;;;;;;;;;24.92;31.25;99129.28;4278287;33;34775;-96
2023/06/12 09:07:17;;;;;;;;;;;;;;;24.12;34.82;99127.00;4292484;33;33428;-91
2023/06/12 09:09:45;;;;;;;;;;;;;;;24.26;34.50;99131.34;4279577;33;34536;-91
2023/06/12 09:12:13;;;;;;;;;;;;;;;24.54;33.68;99129.41;4291722;33;35267;-91
2023/06/12 09:14:44;;;;;;;;;;;;;;;25.52;30.88;99122.19;4291541;33;34629;-91
2023/06/12 09:17:12;;;;;;;;;;;;;;;24.65;32.79;99132.13;4291749;33;32919;-94
2023/06/12 09:19:41;;;;;;;;;;;;;;;26.42;28.53;99136.59;4267477;33;33834;-96
2023/06/12 09:22:09;;;;;;;;;;;;;;;25.63;29.58;99123.19;4278708;33;34992;-96
2023/06/12 09:24:38;;;;;;;;;;;;;;;26.09;29.84;99135.62;4266552;33;33896;-96
2023/06/12 09:27:06;;;;;;;;;;;;;;;25.79;31.51;99134.34;4278391;33;33317;-94
2023/06/12 09:29:35;;;;;;;;;;;;;;;24.07;32.74;99126.47;4278263;33;33213;-91
2023/06/12 09:32:03;;;;;;;;;;;;;;;24.42;32.64;99131.09;4278585;33;34871;-95
2023/06/12 09:34:32;;;;;;;;;;;;;;;25.40;31.13;99128.44;4278482;33;34318;-95
2023/06/12 09:37:00;;;;;;;;;;;;;;;25.42;31.91;99131.00;4280461;33;32328;-93
2023/06/12 09:39:28;;;;;;;;;;;;;;;26.74;29.10;99138.53;4278087;33;32690;-95
2023/06/12 09:41:57;;;;;;;;;;;;;;;25.45;31.52;99123.59;4277792;33;34450;-95
2023/06/12 09:44:26;;;;;;;;;;;;;;;25.94;30.71;99132.31;4265942;33;33634;-91
2023/06/12 09:47:03;;;;;;;;;;;;;;;25.15;35.30;99126.75;4278453;33;32972;-90
2023/06/12 09:49:32;;;;;;;;;;;;;;;24.81;33.45;99120.38;4291221;33;34952;-95
2023/06/12 09:52:00;;;;;;;;;;;;;;;24.58;35.15;99128.22;4291082;33;34762;-95
2023/06/12 09:54:29;;;;;;;;;;;;;;;24.91;33.95;99119.59;4291012;33;35378;-91
2023/06/12 09:56:58;;;;;;;;;;;;;;;25.46;33.04;99133.28;4277871;33;32965;-96
2023/06/12 09:59:31;;;;;;;;;;;;;;;25.33;35.51;99121.88;4290992;33;33809;-93
2023/06/12 10:02:08;;;;;;;;;;;;;;;26.09;32.76;99124.97;4278505;33;35844;-96
2023/06/12 10:04:47;;;;;;;;;;;;;;;26.16;32.24;99120.84;4277973;33;34676;-96
2023/06/12 10:07:19;;;;;;;;;;;;;;;25.99;34.80;99123.97;4278015;33;34231;-92
2023/06/12 10:09:47;;;;;;;;;;;;;;;27.21;29.28;99131.09;4290983;33;33817;-96
2023/06/12 10:12:14;;;;;;;;;;;;;;;27.60;31.19;99128.75;4277929;33;34951;-92
2023/06/12 10:14:42;;;;;;;;;;;;;;;27.19;32.05;99128.53;4289652;33;34714;-95
2023/06/12 10:17:10;;;;;;;;;;;;;;;26.39;32.01;99123.50;4266066;33;31990;-96
2023/06/12 10:19:46;;;;;;;;;;;;;;;26.19;33.38;99117.94;4277956;33;34880;-94
2023/06/12 10:22:14;;;;;;;;;;;;;;;25.66;34.29;99125.59;4290632;33;35293;-91
2023/06/12 10:24:42;;;;;;;;;;;;;;;25.54;34.44;99109.56;4277697;33;33507;-95
2023/06/12 10:27:11;;;;;;;;;;;;;;;25.95;33.39;99122.53;4266314;33;32207;-94
2023/06/12 10:29:39;;;;;;;;;;;;;;;27.29;29.82;99126.00;4289661;33;34836;-96
2023/06/12 10:32:08;;;;;;;;;;;;;;;27.30;30.39;99121.50;4290897;33;36116;-96
2023/06/12 10:34:36;;;;;;;;;;;;;;;28.27;27.74;99122.13;4289576;33;34736;-96
2023/06/12 10:37:23;;;;;;;;;;;;;;;27.50;30.70;99117.16;4278314;33;33080;-91
2023/06/12 10:40:07;;;;;;;;;;;;;;;28.04;29.68;99108.03;4291004;33;34119;-93
2023/06/12 10:42:40;;;;;;;;;;;;;;;27.48;32.44;99116.41;4278032;33;36001;-95
2023/06/12 10:45:15;;;;;;;;;;;;;;;26.47;32.32;99110.38;4290615;33;34692;-96
2023/06/12 10:47:59;;;;;;;;;;;;;;;27.23;29.91;99115.78;4290714;33;33859;-94
2023/06/12 10:50:26;;;;;;;;;;;;;;;27.25;30.74;99103.16;4291301;33;34034;-92
2023/06/12 10:52:55;;;;;;;;;;;;;;;27.80;28.85;99108.31;4290053;33;35131;-95
2023/06/12 10:55:25;;;;;;;;;;;;;;;28.18;29.01;99105.03;4290946;33;34661;-93
2023/06/12 10:57:53;;;;;;;;;;;;;;;26.89;33.22;99105.22;4277648;33;33916;-95
2023/06/12 11:00:22;;;;;;;;;;;;;;;25.85;32.91;99096.50;4290596;33;33127;-94
2023/06/12 11:03:02;;;;;;;;;;;;;;;25.94;36.88;99100.31;4277641;33;34943;-95
2023/06/12 11:05:31;;;;;;;;;;;;;;;25.82;33.15;99086.09;4290401;33;35023;-96
2023/06/12 11:07:59;;;;;;;;;;;;;;;26.36;34.10;99089.88;4290526;33;33835;-91
2023/06/12 11:10:27;;;;;;;;;;;;;;;27.01;30.56;99090.84;4290696;33;34099;-92
2023/06/12 11:12:55;;;;;;;;;;;;;;;26.85;34.05;99091.25;4277377;33;35256;-95
2023/06/12 11:15:23;;;;;;;;;;;;;;;26.06;31.99;99082.50;4277525;33;34763;-94
2023/06/12 11:17:51;;;;;;;;;;;;;;;26.13;33.53;99081.03;4276764;33;32329;-92
2023/06/12 11:20:20;;;;;;;;;;;;;;;25.72;31.87;99080.63;4290463;33;34463;-91
2023/06/12 11:22:48;;;;;;;;;;;;;;;25.99;33.59;99075.97;4290686;33;35112;-91
2023/06/12 11:25:17;;;;;;;;;;;;;;;26.16;34.82;99061.28;4288249;33;34999;-92
2023/06/12 11:27:45;;;;;;;;;;;;;;;26.02;33.28;99065.88;4276958;33;33425;-92
2023/06/12 11:30:14;;;;;;;;;;;;;;;25.44;32.31;99070.41;4275998;33;33750;-92
2023/06/12 11:33:07;;;;;;;;;;;;;;;25.24;33.97;99074.56;4277836;33;35183;-91
2023/06/12 11:35:38;;;;;;;;;;;;;;;24.66;35.00;99077.94;4289608;33;34622;-94
2023/06/12 11:38:07;;;;;;;;;;;;;;;25.39;35.11;99073.41;4290735;33;33414;-92
2023/06/12 11:40:39;;;;;;;;;;;;;;;25.29;33.73;99073.28;4289628;33;34191;-92
2023/06/12 11:43:07;;;;;;;;;;;;;;;24.58;31.81;99065.19;4289335;33;35196;-93
2023/06/12 11:45:41;;;;;;;;;;;;;;;25.50;31.93;99068.12;4276277;33;33890;-93
2023/06/12 11:48:16;;;;;;;;;;;;;;;25.34;33.50;99070.25;4288469;33;33062;-91
2023/06/12 11:50:48;;;;;;;;;;;;;;;24.89;32.31;99072.72;4288470;33;34013;-93
2023/06/12 11:53:20;;;;;;;;;;;;;;;25.40;32.12;99077.78;4276913;33;35211;-93
2023/06/12 11:55:48;;;;;;;;;;;;;;;24.33;29.71;99079.37;4277187;33;34393;-94
2023/06/12 11:58:20;;;;;;;;;;;;;;;24.30;32.55;99074.31;4289380;33;33252;-91
2023/06/12 12:00:51;;;;;;;;;;;;;;;24.36;29.53;99070.34;4289254;33;34966;-92
2023/06/12 12:03:21;;;;;;;;;;;;;;;24.18;30.87;99069.88;4276238;33;35715;-91
2023/06/12 12:05:50;;;;;;;;;;;;;;;23.76;31.10;99059.44;4276142;33;34609;-93
2023/06/12 12:08:18;;;;;;;;;;;;;;;23.85;29.26;99068.63;4289268;33;33797;-94
2023/06/12 12:10:47;;;;;;;;;;;;;;;23.89;30.25;99063.94;4276205;33;33967;-93
2023/06/12 12:13:15;;;;;;;;;;;;;;;24.14;31.60;99063.03;4287940;33;34983;-92
2023/06/12 12:15:46;;;;;;;;;;;;;;;24.36;31.99;99070.34;4288005;33;34598;-90
2023/06/12 12:18:19;;;;;;;;;;;;;;;24.77;31.30;99059.34;4289171;33;33162;-89
2023/06/12 12:20:47;;;;;;;;;;;;;;;25.13;32.84;99060.25;4289246;33;34811;-92
2023/06/12 12:23:15;;;;;;;;;;;;;;;25.43;30.75;99064.22;4275690;33;34616;-90
2023/06/12 12:25:44;;;;;;;;;;;;;;;25.68;32.23;99065.00;4275977;33;33429;-89
2023/06/12 12:28:12;;;;;;;;;;;;;;;26.11;31.38;99059.81;4288661;33;33827;-92
2023/06/12 12:30:40;;;;;;;;;;;;;;;25.96;31.68;99060.19;4277988;33;34668;-92
2023/06/12 12:33:08;;;;;;;;;;;;;;;25.91;30.60;99058.69;4278839;33;34128;-93
2023/06/12 12:35:36;;;;;;;;;;;;;;;25.57;29.71;99059.62;4279244;33;35489;-92
2023/06/12 12:38:04;;;;;;;;;;;;;;;26.06;28.75;99061.16;4291404;33;33417;-92
2023/06/12 12:40:32;;;;;;;;;;;;;;;25.76;26.30;99053.72;4293007;33;34628;-92
2023/06/12 12:43:00;;;;;;;;;;;;;;;25.52;29.23;99054.69;4294269;33;35153;-95
2023/06/12 12:45:28;;;;;;;;;;;;;;;26.03;27.52;99051.59;4279486;33;34699;-96
2023/06/12 12:47:56;;;;;;;;;;;;;;;26.79;28.55;99054.38;4291452;33;33699;-93
2023/06/12 12:50:24;;;;;;;;;;;;;;;25.77;28.32;99056.28;4291422;33;34599;-92
2023/06/12 12:52:56;;;;;;;;;;;;;;;25.34;27.67;99059.59;4291241;33;35354;-95
2023/06/12 12:55:24;;;;;;;;;;;;;;;24.56;27.58;99052.94;4291355;33;34344;-93
2023/06/12 12:57:52;;;;;;;;;;;;;;;25.66;27.44;99048.25;4278432;33;34040;-94